Main page
METAR-TAF:

METAR-TAF

Airports :

Maiduguri International Airport

Maiduguri, Nigeria

latitude: 11-51N, longitude: 013-05E, elevation: 354 m

Current weather observation

The report was made 5 hours and 46 minutes ago, at 09:00 UTC
Wind 11 kt from the East/Northeast
Temperature 23°C
Humidity 31%
Pressure 1016 hPa
Visibility: 7000 m

METAR: DNMA 230900Z 07011KT 7000 NSC 23/05 Q1016

Time: 15:46 (14:46 UTC)

Forecast

The report was made 9 hours and 46 minutes ago, at 05:00 UTC
Forecast valid from 23 at 06 UTC to 24 at 12 UTC
Wind 10 kt from the East
Visibility: 5000 m
haze
Becoming
from 23 at 09 UTC to 23 at 11 UTC
Visibility: 7000 m

TAF: DNMA 230500Z 2306/2412 08010KT 5000 HZ NSC BECMG 2309/2311 7000 NSW

Weather observations and forecasts of more than 4000 airports (METAR and TAF reports).

The available stations are represented by yellow and red dots on the map.

Hover mouse over dot to see the name of the station.

Then click to see weather observations and forecasts.

To change the map : click on the green buttons with a black cross to zoom in, on the green button with a dash to zoom out, or on the green arrows for adjacent maps.


METAR-TAF: